Flight Track Log - Related Links

Times and Time Zones

All times are in EDT time to prevent confusion due to time zone crossing. See the N1197G flight status page for this flight to view local times or setup timezone preferences in your user account.

Time Position Orientation Groundspeed Altitude Reporting Facility
EDT Latitude Longitude Course Direction KTS MPH feet Rate Location/Type
Sat 03:42:11 PM 27.7656 -97.5036 97° East 81 93 300  Level Houston Center
Sat 03:43:18 PM 27.7628 -97.4781 97° East 97 112 1,100 750 Climbing Houston Center
Sat 03:44:19 PM 27.7811 -97.4542 49° Northeast 98 113 1,900 689 Climbing Houston Center
Sat 03:45:20 PM 27.7994 -97.4303 49° Northeast 105 121 2,500 645 Climbing Houston Center
Sat 03:46:20 PM 27.8219 -97.4036 46° Northeast 111 128 3,200 645 Climbing Houston Center
Sat 03:47:21 PM 27.8400 -97.3775 52° Northeast 110 127 3,800 590 Climbing Houston Center
Sat 03:48:22 PM 27.8603 -97.3508 49° Northeast 110 127 4,400 590 Climbing Houston Center
Sat 03:49:23 PM 27.8803 -97.3219 52° Northeast 110 127 5,000 506 Climbing Houston Center
Sat 03:49:45 PM 27.8856 -97.3169 40° Northeast 149 171 5,100 500 Climbing Houston Center
Sat 03:50:23 PM 27.8967 -97.2986 56° Northeast 101 116 5,500 484 Climbing Houston Center
Sat 03:50:47 PM 27.9039 -97.2917 40° Northeast 105 121 5,600 197 Climbing Houston Center
Sat 03:51:24 PM 27.9167 -97.2697 57° Northeast 110 127 5,700 98 Climbing Houston Center
Sat 03:51:48 PM 27.9231 -97.2656 30° Northeast 106 122 5,700  Level Houston Center
Sat 03:52:25 PM 27.9364 -97.2383 61° Northeast 133 153 5,700 -97 Level Houston Center
Sat 03:52:50 PM 27.9447 -97.2328 30° Northeast 115 132 5,600 -100 Descending Houston Center
Sat 03:53:25 PM 27.9597 -97.2019 61° Northeast 133 153 5,600 97 Level Houston Center
Sat 03:53:52 PM 27.9692 -97.1914 45° Northeast 124 143 5,700 98 Climbing Houston Center
Sat 03:54:26 PM 27.9794 -97.1708 60° Northeast 122 140 5,700  Level Houston Center
Sat 03:54:54 PM 27.9889 -97.1594 47° Northeast 125 144 5,700  Level Houston Center
Sat 03:55:27 PM 27.9992 -97.1394 60° Northeast 124 143 5,700 -98 Level Houston Center
Sat 03:55:55 PM 28.0092 -97.1261 50° Northeast 126 145 5,600 -100 Descending Houston Center
Sat 03:56:27 PM 28.0200 -97.1011 64° Northeast 134 154 5,600  Level Houston Center
Sat 03:56:57 PM 28.0281 -97.0903 50° Northeast 128 147 5,600 98 Level Houston Center
Sat 03:57:28 PM 28.0333 -97.0683 75° East 126 145 5,700 97 Climbing Houston Center
Sat 03:57:59 PM 28.0403 -97.0539 61° Northeast 127 146 5,700 98 Level Houston Center
Sat 03:58:29 PM 28.0483 -97.0331 66° East 119 137 5,800 98 Climbing Houston Center
Sat 03:59:00 PM 28.0569 -97.0211 51° Northeast 124 143 5,800 -100 Level Houston Center
Sat 03:59:29 PM 28.0656 -96.9997 65° Northeast 124 143 5,700 -97 Descending Houston Center
Sat 04:00:02 PM 28.0744 -96.9869 52° Northeast 124 143 5,700  Level Houston Center
Sat 04:00:30 PM 28.0842 -96.9589 69° East 135 155 5,700 -97 Level Houston Center
Sat 04:01:04 PM 28.0908 -96.9483 54° Northeast 127 146 5,600 -758 Descending Houston Center
Sat 04:02:05 PM 28.1111 -96.9008 64° Northeast 132 152 4,500 -537 Descending Houston Center
Sat 04:03:07 PM 28.1336 -96.8653 54° Northeast 137 158 4,500 484 Level Houston Center
Sat 04:04:09 PM 28.1531 -96.8294 58° Northeast 137 158 5,500 435 Climbing Houston Center
Sat 04:05:11 PM 28.1706 -96.7928 62° Northeast 135 155 5,400 -49 Descending Houston Center
Sat 04:06:12 PM 28.1867 -96.7542 65° Northeast 135 155 5,400 98 Level Houston Center
Sat 04:07:14 PM 28.2050 -96.7183 60° Northeast 134 154 5,600  Climbing Houston Center
Sat 04:08:16 PM 28.2286 -96.6756 58° Northeast 134 154 5,400 -48 Descending Houston Center
Sat 04:09:18 PM 28.2508 -96.6406 54° Northeast 135 155 5,500  Climbing Houston Center
Sat 04:10:19 PM 28.2747 -96.6058 52° Northeast 137 158 5,400  Descending Houston Center
Sat 04:11:21 PM 28.2958 -96.5706 56° Northeast 137 158 5,500 48 Climbing Houston Center
Sat 04:12:23 PM 28.3153 -96.5350 58° Northeast 136 157 5,500 -32 Level Houston Center
Sat 04:14:27 PM 28.3647 -96.4600 53° Northeast 135 155 5,400 32 Descending Houston Center
Sat 04:15:28 PM 28.3881 -96.4236 54° Northeast 137 158 5,600 49 Climbing Houston Center
Sat 04:16:30 PM 28.4111 -96.3903 52° Northeast 137 158 5,500 -97 Descending Houston Center
Sat 04:17:32 PM 28.4336 -96.3558 53° Northeast 136 157 5,400 48 Descending Houston Center
Sat 04:18:34 PM 28.4556 -96.3200 55° Northeast 137 158 5,600 98 Climbing Houston Center
Sat 04:19:35 PM 28.4778 -96.2850 54° Northeast 137 158 5,600  Level Houston Center
Sat 04:20:37 PM 28.4975 -96.2492 58° Northeast 136 157 5,600  Level Houston Center
Sat 04:21:39 PM 28.5203 -96.2039 60° Northeast 136 157 5,600  Level Houston Center
Sat 04:22:41 PM 28.5386 -96.1669 61° Northeast 136 157 5,600  Level Houston Center
Sat 04:23:42 PM 28.5578 -96.1250 63° Northeast 136 157 5,600 -49 Level Houston Center
Sat 04:24:44 PM 28.5739 -96.0911 62° Northeast 135 155 5,500 -48 Descending Houston Center
Sat 04:25:46 PM 28.5953 -96.0522 58° Northeast 138 159 5,500 48 Level Houston Center
Sat 04:26:48 PM 28.6131 -96.0136 62° Northeast 139 160 5,600 48 Climbing Houston Center
Sat 04:27:50 PM 28.6297 -95.9736 65° Northeast 140 161 5,600 -537 Level Houston Center
Sat 04:28:51 PM 28.6503 -95.9256 64° Northeast 140 161 4,500 -537 Descending Houston Center
Sat 04:29:53 PM 28.6700 -95.8853 61° Northeast 140 161 4,500  Level Houston Center
Sat 04:30:55 PM 28.6581 -95.8372 106° East 234 269 4,500  Level Houston Center
Sat 04:31:57 PM 28.6808 -95.7828 64° Northeast 207 238 4,500  Level Houston Center
Sat 04:32:58 PM 28.7061 -95.7322 60° Northeast 191 220 4,500  Level Houston Center
Sat 04:34:00 PM 28.7319 -95.6825 59° Northeast 187 215 4,500  Level Houston Center
Sat 04:35:02 PM 28.7575 -95.6367 58° Northeast 184 212 4,500  Level Houston Center
Sat 04:36:04 PM 28.7869 -95.5842 57° Northeast 185 213 4,500 -142 Level Houston Center
Sat 04:38:00 PM 28.8514 -95.6242 331° Northwest  Level FlightAware Approximate
Sat 04:45:00 PM 29.1088 -95.6128 40° Northeast  Level FlightAware Approximate
Sat 04:45:38 PM 29.0739 -95.4642 40° Northeast 135 155 3,000  Level Houston Center
Sat 04:46:00 PM 29.1379 -95.5850 40° Northeast  Level FlightAware Approximate
Sat 04:47:00 PM 29.1670 -95.5571 40° Northeast  Level FlightAware Approximate
Sat 04:47:00 PM 29.1203 -95.4377 26° Northeast  Level Estimated
Sat 04:48:00 PM 29.1961 -95.5293 40° Northeast  Level FlightAware Approximate
Sat 04:49:00 PM 29.2252 -95.5014 40° Northeast  Level FlightAware Approximate
Sat 04:50:00 PM 29.2542 -95.4735 40° Northeast  Level FlightAware Approximate
Sat 04:50:44 PM 29.2328 -95.3400 27° Northeast 131 151 3,100  Level Houston Center
Sat 04:51:00 PM 29.2833 -95.4456 40° Northeast  Level FlightAware Approximate
Sat 04:52:00 PM 29.2764 -95.3157 26° Northeast  Level FlightAware Approximate
Sat 04:54:00 PM 29.3579 -95.3020 26° Northeast  Level Estimated
Sat 04:54:42 PM 29.3525 -95.2272 20° North 138 159 2,900  Level Houston Center
Sat 04:55:00 PM 29.3918 -95.2826 27° Northeast  Level Estimated
Sat 04:55:49 PM 29.3858 -95.2017 34° Northeast 134 154 2,800  Level Houston Center
Sat 04:56:00 PM 29.4258 -95.2631 27° Northeast  Level Estimated
Sat 04:57:00 PM 29.4302 -95.1910 12° North  Level FlightAware Approximate
Sat 04:59:00 PM 29.5076 -95.1896 20° North  Level FlightAware Approximate
Sat 05:00:00 PM 29.5435 -95.1742 20° North  Level FlightAware Approximate
Sat 05:04:00 PM 29.6000 -95.1500 20° North  Level FlightAware Approximate
Sat 05:05:00 PM 29.6073 -95.1588 20° North  Level Estimated
Sat 05:06:00 PM 29.6073 -95.1588 20° North  Level Estimated
Sat 05:07:00 PM 29.6073 -95.1588 20° North  Level Estimated
Sat 05:08:00 PM 29.6073 -95.1588 20° North  Level Estimated
Sat 05:09:00 PM 29.6073 -95.1588 20° North  Level Estimated
Sat 05:10:00 PM 29.6073 -95.1588 20° North  Level Estimated
Sat 05:11:00 PM 29.6073 -95.1588 20° North  Level Estimated
Sat 05:12:00 PM 29.6073 -95.1588 20° North  Level Estimated

Login

Don't have an account? Register now (free) for customized features, flight alerts, and more!